sensor_id;sensor_type;location;lat;lon;timestamp;P1;durP1;ratioP1;P2;durP2;ratioP2
37907;SDS011;23740;51.550;6.846;2022-12-19T00:03:31;24.02;;;22.23;;
37907;SDS011;23740;51.550;6.846;2022-12-19T00:06:00;24.52;;;22.58;;
37907;SDS011;23740;51.550;6.846;2022-12-19T00:08:26;24.20;;;22.40;;
37907;SDS011;23740;51.550;6.846;2022-12-19T00:10:56;24.02;;;22.27;;
37907;SDS011;23740;51.550;6.846;2022-12-19T00:13:22;23.92;;;22.15;;
37907;SDS011;23740;51.550;6.846;2022-12-19T00:15:48;24.00;;;22.20;;
37907;SDS011;23740;51.550;6.846;2022-12-19T00:18:13;23.70;;;21.98;;
37907;SDS011;23740;51.550;6.846;2022-12-19T00:20:38;23.08;;;21.38;;
37907;SDS011;23740;51.550;6.846;2022-12-19T00:23:04;23.45;;;21.63;;
37907;SDS011;23740;51.550;6.846;2022-12-19T00:25:29;23.98;;;22.17;;
37907;SDS011;23740;51.550;6.846;2022-12-19T00:27:54;23.80;;;21.70;;
37907;SDS011;23740;51.550;6.846;2022-12-19T00:30:20;23.65;;;21.75;;
37907;SDS011;23740;51.550;6.846;2022-12-19T00:32:45;24.02;;;22.10;;
37907;SDS011;23740;51.550;6.846;2022-12-19T00:35:11;23.10;;;21.40;;
37907;SDS011;23740;51.550;6.846;2022-12-19T00:37:37;23.02;;;21.13;;
37907;SDS011;23740;51.550;6.846;2022-12-19T00:40:03;22.73;;;20.90;;
37907;SDS011;23740;51.550;6.846;2022-12-19T00:42:29;22.05;;;20.40;;
37907;SDS011;23740;51.550;6.846;2022-12-19T00:44:54;22.17;;;20.42;;
37907;SDS011;23740;51.550;6.846;2022-12-19T00:47:19;21.95;;;20.35;;
37907;SDS011;23740;51.550;6.846;2022-12-19T00:49:45;22.30;;;20.50;;
37907;SDS011;23740;51.550;6.846;2022-12-19T00:52:10;21.85;;;20.23;;
37907;SDS011;23740;51.550;6.846;2022-12-19T00:54:35;22.25;;;20.33;;
37907;SDS011;23740;51.550;6.846;2022-12-19T00:57:01;21.23;;;19.67;;
37907;SDS011;23740;51.550;6.846;2022-12-19T00:59:26;20.73;;;19.23;;
37907;SDS011;23740;51.550;6.846;2022-12-19T01:01:52;21.10;;;19.45;;
37907;SDS011;23740;51.550;6.846;2022-12-19T01:04:17;21.45;;;19.85;;
37907;SDS011;23740;51.550;6.846;2022-12-19T01:06:42;21.80;;;19.95;;
37907;SDS011;23740;51.550;6.846;2022-12-19T01:09:09;21.30;;;19.60;;
37907;SDS011;23740;51.550;6.846;2022-12-19T01:11:35;21.75;;;20.05;;
37907;SDS011;23740;51.550;6.846;2022-12-19T01:14:19;20.50;;;18.90;;
37907;SDS011;23740;51.550;6.846;2022-12-19T01:16:45;21.17;;;19.58;;
37907;SDS011;23740;51.550;6.846;2022-12-19T01:19:10;20.95;;;19.23;;
37907;SDS011;23740;51.550;6.846;2022-12-19T01:21:35;19.85;;;18.35;;
37907;SDS011;23740;51.550;6.846;2022-12-19T01:24:01;20.92;;;19.33;;
37907;SDS011;23740;51.550;6.846;2022-12-19T01:26:27;19.98;;;18.48;;
37907;SDS011;23740;51.550;6.846;2022-12-19T01:28:53;20.55;;;18.95;;
37907;SDS011;23740;51.550;6.846;2022-12-19T01:31:18;21.00;;;19.35;;
37907;SDS011;23740;51.550;6.846;2022-12-19T01:33:44;19.30;;;17.70;;
37907;SDS011;23740;51.550;6.846;2022-12-19T01:36:09;19.98;;;18.27;;
37907;SDS011;23740;51.550;6.846;2022-12-19T01:38:35;20.05;;;18.50;;
37907;SDS011;23740;51.550;6.846;2022-12-19T01:41:00;19.40;;;17.90;;
37907;SDS011;23740;51.550;6.846;2022-12-19T01:43:28;19.17;;;17.65;;
37907;SDS011;23740;51.550;6.846;2022-12-19T01:46:03;18.98;;;17.58;;
37907;SDS011;23740;51.550;6.846;2022-12-19T01:48:34;18.48;;;17.08;;
37907;SDS011;23740;51.550;6.846;2022-12-19T01:51:06;18.92;;;17.52;;
37907;SDS011;23740;51.550;6.846;2022-12-19T01:53:38;18.75;;;17.38;;
37907;SDS011;23740;51.550;6.846;2022-12-19T01:56:06;19.15;;;17.70;;
37907;SDS011;23740;51.550;6.846;2022-12-19T01:58:34;19.02;;;17.63;;
37907;SDS011;23740;51.550;6.846;2022-12-19T02:01:01;18.67;;;17.17;;
37907;SDS011;23740;51.550;6.846;2022-12-19T02:03:26;18.75;;;17.33;;
37907;SDS011;23740;51.550;6.846;2022-12-19T02:05:53;18.50;;;17.10;;
37907;SDS011;23740;51.550;6.846;2022-12-19T02:08:18;18.30;;;16.70;;
37907;SDS011;23740;51.550;6.846;2022-12-19T02:10:45;19.17;;;17.67;;
37907;SDS011;23740;51.550;6.846;2022-12-19T02:13:10;18.27;;;16.77;;
37907;SDS011;23740;51.550;6.846;2022-12-19T02:15:41;18.45;;;17.05;;
37907;SDS011;23740;51.550;6.846;2022-12-19T02:18:33;17.80;;;16.40;;
37907;SDS011;23740;51.550;6.846;2022-12-19T02:21:11;18.67;;;17.13;;
37907;SDS011;23740;51.550;6.846;2022-12-19T02:32:03;17.77;;;16.48;;
37907;SDS011;23740;51.550;6.846;2022-12-19T02:34:32;17.75;;;16.33;;
37907;SDS011;23740;51.550;6.846;2022-12-19T02:37:06;18.17;;;16.77;;
37907;SDS011;23740;51.550;6.846;2022-12-19T02:42:07;17.55;;;16.08;;
37907;SDS011;23740;51.550;6.846;2022-12-19T02:44:47;17.92;;;16.52;;
37907;SDS011;23740;51.550;6.846;2022-12-19T02:47:14;17.65;;;16.15;;
37907;SDS011;23740;51.550;6.846;2022-12-19T02:49:40;17.38;;;15.88;;
37907;SDS011;23740;51.550;6.846;2022-12-19T02:54:43;16.25;;;15.05;;
37907;SDS011;23740;51.550;6.846;2022-12-19T02:57:28;17.15;;;15.75;;
37907;SDS011;23740;51.550;6.846;2022-12-19T03:10:43;16.55;;;15.15;;
37907;SDS011;23740;51.550;6.846;2022-12-19T03:13:20;16.45;;;15.15;;
37907;SDS011;23740;51.550;6.846;2022-12-19T03:15:51;15.93;;;14.63;;
37907;SDS011;23740;51.550;6.846;2022-12-19T03:18:17;15.63;;;14.32;;
37907;SDS011;23740;51.550;6.846;2022-12-19T03:23:16;15.52;;;14.23;;
37907;SDS011;23740;51.550;6.846;2022-12-19T03:25:43;15.52;;;14.32;;
37907;SDS011;23740;51.550;6.846;2022-12-19T03:30:38;16.15;;;14.73;;
37907;SDS011;23740;51.550;6.846;2022-12-19T03:33:05;16.30;;;14.90;;
37907;SDS011;23740;51.550;6.846;2022-12-19T03:35:32;15.00;;;13.60;;
37907;SDS011;23740;51.550;6.846;2022-12-19T03:37:59;16.13;;;14.63;;
37907;SDS011;23740;51.550;6.846;2022-12-19T03:40:26;15.20;;;14.00;;
37907;SDS011;23740;51.550;6.846;2022-12-19T03:42:54;14.88;;;13.68;;
37907;SDS011;23740;51.550;6.846;2022-12-19T03:45:41;15.00;;;13.75;;
37907;SDS011;23740;51.550;6.846;2022-12-19T03:53:28;14.07;;;12.97;;
37907;SDS011;23740;51.550;6.846;2022-12-19T03:56:03;15.40;;;14.15;;
37907;SDS011;23740;51.550;6.846;2022-12-19T03:58:33;14.40;;;13.20;;
37907;SDS011;23740;51.550;6.846;2022-12-19T04:01:00;14.18;;;13.10;;
37907;SDS011;23740;51.550;6.846;2022-12-19T04:03:27;14.88;;;13.68;;
37907;SDS011;23740;51.550;6.846;2022-12-19T04:05:54;14.50;;;13.23;;
37907;SDS011;23740;51.550;6.846;2022-12-19T04:08:21;14.10;;;12.98;;
37907;SDS011;23740;51.550;6.846;2022-12-19T04:10:49;14.02;;;12.82;;
37907;SDS011;23740;51.550;6.846;2022-12-19T04:13:17;14.40;;;13.20;;
37907;SDS011;23740;51.550;6.846;2022-12-19T04:18:45;14.05;;;12.85;;
37907;SDS011;23740;51.550;6.846;2022-12-19T04:21:17;13.60;;;12.40;;
37907;SDS011;23740;51.550;6.846;2022-12-19T04:23:49;12.88;;;11.75;;
37907;SDS011;23740;51.550;6.846;2022-12-19T04:26:17;13.57;;;12.48;;
37907;SDS011;23740;51.550;6.846;2022-12-19T04:28:45;14.20;;;13.00;;
37907;SDS011;23740;51.550;6.846;2022-12-19T04:31:12;14.48;;;13.30;;
37907;SDS011;23740;51.550;6.846;2022-12-19T04:33:38;13.35;;;12.25;;
37907;SDS011;23740;51.550;6.846;2022-12-19T04:36:04;14.10;;;12.90;;
37907;SDS011;23740;51.550;6.846;2022-12-19T04:38:30;13.88;;;12.63;;
37907;SDS011;23740;51.550;6.846;2022-12-19T04:40:55;13.27;;;12.18;;
37907;SDS011;23740;51.550;6.846;2022-12-19T04:43:21;13.38;;;12.18;;
37907;SDS011;23740;51.550;6.846;2022-12-19T04:45:46;13.15;;;12.05;;
37907;SDS011;23740;51.550;6.846;2022-12-19T04:48:11;13.05;;;11.95;;
37907;SDS011;23740;51.550;6.846;2022-12-19T04:50:37;13.45;;;12.30;;
37907;SDS011;23740;51.550;6.846;2022-12-19T04:53:02;13.35;;;12.25;;
37907;SDS011;23740;51.550;6.846;2022-12-19T04:55:27;13.07;;;11.95;;
37907;SDS011;23740;51.550;6.846;2022-12-19T04:57:53;12.25;;;11.25;;
37907;SDS011;23740;51.550;6.846;2022-12-19T05:00:18;13.80;;;12.60;;
37907;SDS011;23740;51.550;6.846;2022-12-19T05:02:44;12.60;;;11.60;;
37907;SDS011;23740;51.550;6.846;2022-12-19T05:05:09;12.45;;;11.45;;
37907;SDS011;23740;51.550;6.846;2022-12-19T05:07:35;12.57;;;11.55;;
37907;SDS011;23740;51.550;6.846;2022-12-19T05:10:00;13.15;;;11.95;;
37907;SDS011;23740;51.550;6.846;2022-12-19T05:12:27;13.30;;;12.20;;
37907;SDS011;23740;51.550;6.846;2022-12-19T05:14:53;12.40;;;11.30;;
37907;SDS011;23740;51.550;6.846;2022-12-19T05:17:18;13.10;;;11.90;;
37907;SDS011;23740;51.550;6.846;2022-12-19T05:19:43;12.20;;;11.00;;
37907;SDS011;23740;51.550;6.846;2022-12-19T05:22:09;12.30;;;11.30;;
37907;SDS011;23740;51.550;6.846;2022-12-19T05:24:34;11.98;;;10.98;;
37907;SDS011;23740;51.550;6.846;2022-12-19T05:26:59;11.80;;;10.80;;
37907;SDS011;23740;51.550;6.846;2022-12-19T05:29:25;12.02;;;11.00;;
37907;SDS011;23740;51.550;6.846;2022-12-19T05:31:50;11.77;;;10.68;;
37907;SDS011;23740;51.550;6.846;2022-12-19T05:34:15;11.90;;;10.90;;
37907;SDS011;23740;51.550;6.846;2022-12-19T05:36:41;12.10;;;11.00;;
37907;SDS011;23740;51.550;6.846;2022-12-19T05:39:06;11.68;;;10.65;;
37907;SDS011;23740;51.550;6.846;2022-12-19T05:41:31;11.98;;;10.98;;
37907;SDS011;23740;51.550;6.846;2022-12-19T05:43:57;12.10;;;10.90;;
37907;SDS011;23740;51.550;6.846;2022-12-19T05:46:23;11.60;;;10.50;;
37907;SDS011;23740;51.550;6.846;2022-12-19T05:48:48;11.68;;;10.68;;
37907;SDS011;23740;51.550;6.846;2022-12-19T05:51:14;11.65;;;10.63;;
37907;SDS011;23740;51.550;6.846;2022-12-19T05:53:41;12.07;;;10.98;;
37907;SDS011;23740;51.550;6.846;2022-12-19T05:58:33;11.90;;;10.77;;
37907;SDS011;23740;51.550;6.846;2022-12-19T06:01:02;11.50;;;10.50;;
37907;SDS011;23740;51.550;6.846;2022-12-19T06:03:29;10.85;;;9.85;;
37907;SDS011;23740;51.550;6.846;2022-12-19T06:05:54;11.30;;;10.30;;
37907;SDS011;23740;51.550;6.846;2022-12-19T06:08:20;11.15;;;10.15;;
37907;SDS011;23740;51.550;6.846;2022-12-19T06:10:46;11.20;;;10.13;;
37907;SDS011;23740;51.550;6.846;2022-12-19T06:13:11;11.23;;;10.23;;
37907;SDS011;23740;51.550;6.846;2022-12-19T06:15:36;10.50;;;9.70;;
37907;SDS011;23740;51.550;6.846;2022-12-19T06:18:02;10.38;;;9.48;;
37907;SDS011;23740;51.550;6.846;2022-12-19T06:20:27;10.95;;;9.95;;
37907;SDS011;23740;51.550;6.846;2022-12-19T06:22:52;10.60;;;9.70;;
37907;SDS011;23740;51.550;6.846;2022-12-19T06:25:18;10.18;;;9.20;;
37907;SDS011;23740;51.550;6.846;2022-12-19T06:27:43;10.82;;;9.82;;
37907;SDS011;23740;51.550;6.846;2022-12-19T06:30:09;10.55;;;9.65;;
37907;SDS011;23740;51.550;6.846;2022-12-19T06:32:35;10.38;;;9.48;;
37907;SDS011;23740;51.550;6.846;2022-12-19T06:35:00;10.88;;;9.88;;
37907;SDS011;23740;51.550;6.846;2022-12-19T06:37:26;10.00;;;9.10;;
37907;SDS011;23740;51.550;6.846;2022-12-19T06:39:51;11.40;;;10.30;;
37907;SDS011;23740;51.550;6.846;2022-12-19T06:42:16;10.00;;;9.10;;
37907;SDS011;23740;51.550;6.846;2022-12-19T06:44:51;11.00;;;9.90;;
37907;SDS011;23740;51.550;6.846;2022-12-19T06:47:18;9.85;;;8.95;;
37907;SDS011;23740;51.550;6.846;2022-12-19T06:49:44;9.45;;;8.65;;
37907;SDS011;23740;51.550;6.846;2022-12-19T06:52:09;10.15;;;9.30;;
37907;SDS011;23740;51.550;6.846;2022-12-19T06:54:34;10.10;;;9.20;;
37907;SDS011;23740;51.550;6.846;2022-12-19T06:57:00;10.32;;;9.40;;
37907;SDS011;23740;51.550;6.846;2022-12-19T06:59:25;9.65;;;8.77;;
37907;SDS011;23740;51.550;6.846;2022-12-19T07:04:24;9.40;;;8.60;;
37907;SDS011;23740;51.550;6.846;2022-12-19T07:06:58;10.80;;;9.80;;
37907;SDS011;23740;51.550;6.846;2022-12-19T07:09:24;10.20;;;9.20;;
37907;SDS011;23740;51.550;6.846;2022-12-19T07:11:51;10.93;;;9.75;;
37907;SDS011;23740;51.550;6.846;2022-12-19T07:14:16;10.27;;;9.13;;
37907;SDS011;23740;51.550;6.846;2022-12-19T07:16:43;9.45;;;8.55;;
37907;SDS011;23740;51.550;6.846;2022-12-19T07:19:08;8.95;;;8.20;;
37907;SDS011;23740;51.550;6.846;2022-12-19T07:21:34;9.35;;;8.38;;
37907;SDS011;23740;51.550;6.846;2022-12-19T07:23:59;9.45;;;8.48;;
37907;SDS011;23740;51.550;6.846;2022-12-19T07:26:25;9.20;;;8.35;;
37907;SDS011;23740;51.550;6.846;2022-12-19T07:28:51;10.00;;;8.98;;
37907;SDS011;23740;51.550;6.846;2022-12-19T07:31:17;14.27;;;8.55;;
37907;SDS011;23740;51.550;6.846;2022-12-19T07:33:42;9.10;;;8.25;;
37907;SDS011;23740;51.550;6.846;2022-12-19T07:36:08;8.65;;;7.85;;
37907;SDS011;23740;51.550;6.846;2022-12-19T07:38:33;9.95;;;7.78;;
37907;SDS011;23740;51.550;6.846;2022-12-19T07:41:00;8.90;;;7.97;;
37907;SDS011;23740;51.550;6.846;2022-12-19T07:43:26;12.20;;;7.90;;
37907;SDS011;23740;51.550;6.846;2022-12-19T07:45:55;11.70;;;8.00;;
37907;SDS011;23740;51.550;6.846;2022-12-19T07:48:20;8.30;;;7.50;;
37907;SDS011;23740;51.550;6.846;2022-12-19T07:50:46;8.88;;;7.97;;
37907;SDS011;23740;51.550;6.846;2022-12-19T07:53:13;8.38;;;7.57;;
37907;SDS011;23740;51.550;6.846;2022-12-19T07:55:38;8.10;;;6.95;;
37907;SDS011;23740;51.550;6.846;2022-12-19T07:58:04;8.10;;;7.38;;
37907;SDS011;23740;51.550;6.846;2022-12-19T08:00:29;8.50;;;7.32;;
37907;SDS011;23740;51.550;6.846;2022-12-19T08:02:56;7.90;;;7.10;;
37907;SDS011;23740;51.550;6.846;2022-12-19T08:05:22;7.70;;;7.05;;
37907;SDS011;23740;51.550;6.846;2022-12-19T08:07:48;9.73;;;6.97;;
37907;SDS011;23740;51.550;6.846;2022-12-19T08:10:13;8.05;;;7.28;;
37907;SDS011;23740;51.550;6.846;2022-12-19T08:12:39;7.57;;;6.88;;
37907;SDS011;23740;51.550;6.846;2022-12-19T08:15:05;8.20;;;7.20;;
37907;SDS011;23740;51.550;6.846;2022-12-19T08:17:31;7.50;;;6.68;;
37907;SDS011;23740;51.550;6.846;2022-12-19T08:19:56;8.10;;;7.30;;
37907;SDS011;23740;51.550;6.846;2022-12-19T08:22:21;7.60;;;6.90;;
37907;SDS011;23740;51.550;6.846;2022-12-19T08:24:47;7.75;;;6.90;;
37907;SDS011;23740;51.550;6.846;2022-12-19T08:27:14;7.82;;;7.13;;
37907;SDS011;23740;51.550;6.846;2022-12-19T08:29:39;8.45;;;7.30;;
37907;SDS011;23740;51.550;6.846;2022-12-19T08:32:05;7.93;;;7.13;;
37907;SDS011;23740;51.550;6.846;2022-12-19T08:34:30;7.30;;;6.60;;
37907;SDS011;23740;51.550;6.846;2022-12-19T08:36:56;8.18;;;6.90;;
37907;SDS011;23740;51.550;6.846;2022-12-19T08:39:22;7.53;;;6.80;;
37907;SDS011;23740;51.550;6.846;2022-12-19T08:41:47;7.38;;;6.68;;
37907;SDS011;23740;51.550;6.846;2022-12-19T08:44:12;7.80;;;7.00;;
37907;SDS011;23740;51.550;6.846;2022-12-19T08:46:38;7.55;;;6.78;;
37907;SDS011;23740;51.550;6.846;2022-12-19T08:49:04;7.75;;;6.93;;
37907;SDS011;23740;51.550;6.846;2022-12-19T08:51:29;7.00;;;6.30;;
37907;SDS011;23740;51.550;6.846;2022-12-19T08:53:55;6.97;;;6.28;;
37907;SDS011;23740;51.550;6.846;2022-12-19T08:56:20;7.85;;;7.13;;
37907;SDS011;23740;51.550;6.846;2022-12-19T08:58:46;9.75;;;6.95;;
37907;SDS011;23740;51.550;6.846;2022-12-19T09:01:12;8.02;;;6.50;;
37907;SDS011;23740;51.550;6.846;2022-12-19T09:03:40;7.90;;;6.45;;
37907;SDS011;23740;51.550;6.846;2022-12-19T09:06:06;7.10;;;6.30;;
37907;SDS011;23740;51.550;6.846;2022-12-19T09:08:33;7.40;;;6.72;;
37907;SDS011;23740;51.550;6.846;2022-12-19T09:11:12;7.18;;;6.47;;
37907;SDS011;23740;51.550;6.846;2022-12-19T09:13:39;11.18;;;7.95;;
37907;SDS011;23740;51.550;6.846;2022-12-19T09:18:37;6.90;;;6.30;;
37907;SDS011;23740;51.550;6.846;2022-12-19T09:21:03;9.13;;;6.60;;
37907;SDS011;23740;51.550;6.846;2022-12-19T09:23:29;7.95;;;6.50;;
37907;SDS011;23740;51.550;6.846;2022-12-19T09:25:56;7.80;;;6.05;;
37907;SDS011;23740;51.550;6.846;2022-12-19T09:28:25;8.77;;;5.63;;
37907;SDS011;23740;51.550;6.846;2022-12-19T09:30:57;6.63;;;5.95;;
37907;SDS011;23740;51.550;6.846;2022-12-19T09:33:26;7.28;;;6.57;;
37907;SDS011;23740;51.550;6.846;2022-12-19T09:35:52;7.47;;;6.07;;
37907;SDS011;23740;51.550;6.846;2022-12-19T09:38:19;7.00;;;6.10;;
37907;SDS011;23740;51.550;6.846;2022-12-19T09:40:51;6.30;;;5.70;;
37907;SDS011;23740;51.550;6.846;2022-12-19T09:48:20;6.55;;;5.95;;
37907;SDS011;23740;51.550;6.846;2022-12-19T09:53:26;6.40;;;5.80;;
37907;SDS011;23740;51.550;6.846;2022-12-19T09:55:53;6.45;;;5.85;;
37907;SDS011;23740;51.550;6.846;2022-12-19T10:00:57;6.65;;;5.50;;
37907;SDS011;23740;51.550;6.846;2022-12-19T10:08:45;9.32;;;5.57;;
37907;SDS011;23740;51.550;6.846;2022-12-19T10:18:48;7.38;;;5.70;;
37907;SDS011;23740;51.550;6.846;2022-12-19T10:21:35;6.47;;;5.40;;
37907;SDS011;23740;51.550;6.846;2022-12-19T10:26:58;6.07;;;5.20;;
37907;SDS011;23740;51.550;6.846;2022-12-19T10:35:35;7.88;;;5.30;;
37907;SDS011;23740;51.550;6.846;2022-12-19T10:40:52;6.47;;;5.30;;
37907;SDS011;23740;51.550;6.846;2022-12-19T10:46:01;6.25;;;5.13;;
37907;SDS011;23740;51.550;6.846;2022-12-19T10:48:30;5.93;;;5.30;;
37907;SDS011;23740;51.550;6.846;2022-12-19T10:50:55;6.78;;;4.85;;
37907;SDS011;23740;51.550;6.846;2022-12-19T10:53:25;6.15;;;5.55;;
37907;SDS011;23740;51.550;6.846;2022-12-19T10:55:52;6.07;;;5.47;;
37907;SDS011;23740;51.550;6.846;2022-12-19T11:03:41;5.50;;;4.97;;
37907;SDS011;23740;51.550;6.846;2022-12-19T11:11:42;5.35;;;4.85;;
37907;SDS011;23740;51.550;6.846;2022-12-19T11:14:21;6.85;;;5.40;;
37907;SDS011;23740;51.550;6.846;2022-12-19T11:16:50;5.57;;;4.85;;
37907;SDS011;23740;51.550;6.846;2022-12-19T11:19:20;11.23;;;5.07;;
37907;SDS011;23740;51.550;6.846;2022-12-19T11:22:08;5.22;;;4.72;;
37907;SDS011;23740;51.550;6.846;2022-12-19T11:24:41;6.03;;;5.10;;
37907;SDS011;23740;51.550;6.846;2022-12-19T11:29:56;6.07;;;4.82;;
37907;SDS011;23740;51.550;6.846;2022-12-19T11:37:35;5.13;;;4.63;;
37907;SDS011;23740;51.550;6.846;2022-12-19T11:40:13;6.32;;;5.20;;
37907;SDS011;23740;51.550;6.846;2022-12-19T11:48:12;5.65;;;5.03;;
37907;SDS011;23740;51.550;6.846;2022-12-19T11:50:43;6.60;;;4.93;;
37907;SDS011;23740;51.550;6.846;2022-12-19T11:53:18;5.30;;;4.40;;
37907;SDS011;23740;51.550;6.846;2022-12-19T11:58:15;5.78;;;5.00;;
37907;SDS011;23740;51.550;6.846;2022-12-19T12:00:53;5.10;;;4.60;;
37907;SDS011;23740;51.550;6.846;2022-12-19T12:06:19;5.00;;;4.50;;
37907;SDS011;23740;51.550;6.846;2022-12-19T12:30:51;4.85;;;3.92;;
37907;SDS011;23740;51.550;6.846;2022-12-19T12:36:38;6.80;;;5.10;;
37907;SDS011;23740;51.550;6.846;2022-12-19T12:44:52;5.10;;;4.50;;
37907;SDS011;23740;51.550;6.846;2022-12-19T12:47:24;5.60;;;4.47;;
37907;SDS011;23740;51.550;6.846;2022-12-19T12:49:54;6.50;;;4.25;;
37907;SDS011;23740;51.550;6.846;2022-12-19T12:52:26;5.88;;;4.15;;
37907;SDS011;23740;51.550;6.846;2022-12-19T12:54:54;6.38;;;4.63;;
37907;SDS011;23740;51.550;6.846;2022-12-19T12:57:31;5.20;;;4.70;;
37907;SDS011;23740;51.550;6.846;2022-12-19T13:02:38;4.93;;;3.75;;
37907;SDS011;23740;51.550;6.846;2022-12-19T13:05:14;5.53;;;4.70;;
37907;SDS011;23740;51.550;6.846;2022-12-19T13:07:51;5.22;;;4.55;;
37907;SDS011;23740;51.550;6.846;2022-12-19T13:10:21;5.10;;;4.20;;
37907;SDS011;23740;51.550;6.846;2022-12-19T13:30:25;4.43;;;3.88;;
37907;SDS011;23740;51.550;6.846;2022-12-19T13:35:31;5.45;;;4.18;;
37907;SDS011;23740;51.550;6.846;2022-12-19T13:43:15;4.53;;;3.75;;
37907;SDS011;23740;51.550;6.846;2022-12-19T13:50:57;6.45;;;4.40;;
37907;SDS011;23740;51.550;6.846;2022-12-19T13:53:26;4.85;;;4.30;;
37907;SDS011;23740;51.550;6.846;2022-12-19T13:55:53;6.13;;;4.38;;
37907;SDS011;23740;51.550;6.846;2022-12-19T13:58:46;6.60;;;4.18;;
37907;SDS011;23740;51.550;6.846;2022-12-19T14:03:55;4.10;;;3.60;;
37907;SDS011;23740;51.550;6.846;2022-12-19T14:06:29;4.50;;;3.67;;
37907;SDS011;23740;51.550;6.846;2022-12-19T14:09:07;5.53;;;4.18;;
37907;SDS011;23740;51.550;6.846;2022-12-19T14:11:54;5.13;;;3.88;;
37907;SDS011;23740;51.550;6.846;2022-12-19T14:14:21;5.82;;;4.25;;
37907;SDS011;23740;51.550;6.846;2022-12-19T14:17:27;5.28;;;3.58;;
37907;SDS011;23740;51.550;6.846;2022-12-19T14:19:53;5.80;;;3.70;;
37907;SDS011;23740;51.550;6.846;2022-12-19T14:22:19;4.22;;;3.58;;
37907;SDS011;23740;51.550;6.846;2022-12-19T14:24:59;4.35;;;3.58;;
37907;SDS011;23740;51.550;6.846;2022-12-19T14:27:36;6.13;;;3.88;;
37907;SDS011;23740;51.550;6.846;2022-12-19T14:30:04;5.10;;;4.18;;
37907;SDS011;23740;51.550;6.846;2022-12-19T14:32:30;4.38;;;3.35;;
37907;SDS011;23740;51.550;6.846;2022-12-19T14:34:57;5.70;;;4.22;;
37907;SDS011;23740;51.550;6.846;2022-12-19T14:37:28;5.45;;;3.92;;
37907;SDS011;23740;51.550;6.846;2022-12-19T14:39:56;5.80;;;3.80;;
37907;SDS011;23740;51.550;6.846;2022-12-19T14:42:24;6.80;;;3.95;;
37907;SDS011;23740;51.550;6.846;2022-12-19T14:47:56;4.80;;;3.70;;
37907;SDS011;23740;51.550;6.846;2022-12-19T14:50:31;5.93;;;4.07;;
37907;SDS011;23740;51.550;6.846;2022-12-19T14:53:08;4.97;;;3.53;;
37907;SDS011;23740;51.550;6.846;2022-12-19T14:55:40;4.95;;;3.80;;
37907;SDS011;23740;51.550;6.846;2022-12-19T14:58:07;4.20;;;3.30;;
37907;SDS011;23740;51.550;6.846;2022-12-19T15:01:17;4.07;;;3.40;;
37907;SDS011;23740;51.550;6.846;2022-12-19T15:03:27;4.97;;;3.30;;
37907;SDS011;23740;51.550;6.846;2022-12-19T15:06:03;4.13;;;3.47;;
37907;SDS011;23740;51.550;6.846;2022-12-19T15:08:31;4.30;;;3.45;;
37907;SDS011;23740;51.550;6.846;2022-12-19T15:10:59;5.28;;;3.63;;
37907;SDS011;23740;51.550;6.846;2022-12-19T15:13:52;5.20;;;3.58;;
37907;SDS011;23740;51.550;6.846;2022-12-19T15:16:37;4.57;;;3.58;;
37907;SDS011;23740;51.550;6.846;2022-12-19T15:19:02;5.60;;;3.47;;
37907;SDS011;23740;51.550;6.846;2022-12-19T15:21:35;5.25;;;3.50;;
37907;SDS011;23740;51.550;6.846;2022-12-19T15:24:00;5.68;;;3.45;;
37907;SDS011;23740;51.550;6.846;2022-12-19T15:28:57;4.53;;;3.33;;
37907;SDS011;23740;51.550;6.846;2022-12-19T15:31:28;4.50;;;3.70;;
37907;SDS011;23740;51.550;6.846;2022-12-19T15:33:56;4.75;;;3.40;;
37907;SDS011;23740;51.550;6.846;2022-12-19T15:36:21;5.40;;;3.42;;
37907;SDS011;23740;51.550;6.846;2022-12-19T15:38:47;5.22;;;3.58;;
37907;SDS011;23740;51.550;6.846;2022-12-19T15:41:14;4.65;;;3.75;;
37907;SDS011;23740;51.550;6.846;2022-12-19T15:46:07;4.85;;;3.38;;
37907;SDS011;23740;51.550;6.846;2022-12-19T15:48:33;5.32;;;3.40;;
37907;SDS011;23740;51.550;6.846;2022-12-19T15:53:28;3.95;;;3.30;;
37907;SDS011;23740;51.550;6.846;2022-12-19T15:55:54;5.78;;;3.50;;
37907;SDS011;23740;51.550;6.846;2022-12-19T15:58:20;4.63;;;3.45;;
37907;SDS011;23740;51.550;6.846;2022-12-19T16:00:59;6.20;;;3.55;;
37907;SDS011;23740;51.550;6.846;2022-12-19T16:03:25;4.63;;;3.80;;
37907;SDS011;23740;51.550;6.846;2022-12-19T16:05:51;5.10;;;3.60;;
37907;SDS011;23740;51.550;6.846;2022-12-19T16:08:18;6.45;;;3.65;;
37907;SDS011;23740;51.550;6.846;2022-12-19T16:10:45;5.38;;;3.70;;
37907;SDS011;23740;51.550;6.846;2022-12-19T16:13:19;4.72;;;3.25;;
37907;SDS011;23740;51.550;6.846;2022-12-19T16:15:46;5.20;;;3.50;;
37907;SDS011;23740;51.550;6.846;2022-12-19T16:18:12;5.40;;;4.10;;
37907;SDS011;23740;51.550;6.846;2022-12-19T16:20:38;5.55;;;3.90;;
37907;SDS011;23740;51.550;6.846;2022-12-19T16:23:04;4.80;;;3.55;;
37907;SDS011;23740;51.550;6.846;2022-12-19T16:25:35;5.72;;;3.40;;
37907;SDS011;23740;51.550;6.846;2022-12-19T16:28:03;5.45;;;3.65;;
37907;SDS011;23740;51.550;6.846;2022-12-19T16:30:31;5.40;;;3.30;;
37907;SDS011;23740;51.550;6.846;2022-12-19T16:32:58;4.93;;;3.17;;
37907;SDS011;23740;51.550;6.846;2022-12-19T16:35:24;5.05;;;3.00;;
37907;SDS011;23740;51.550;6.846;2022-12-19T16:37:51;4.00;;;3.30;;
37907;SDS011;23740;51.550;6.846;2022-12-19T16:40:17;5.07;;;3.17;;
37907;SDS011;23740;51.550;6.846;2022-12-19T16:42:44;4.93;;;3.38;;
37907;SDS011;23740;51.550;6.846;2022-12-19T16:45:17;3.83;;;3.08;;
37907;SDS011;23740;51.550;6.846;2022-12-19T16:47:46;5.97;;;3.30;;
37907;SDS011;23740;51.550;6.846;2022-12-19T16:52:43;6.53;;;3.25;;
37907;SDS011;23740;51.550;6.846;2022-12-19T16:55:08;3.30;;;2.90;;
37907;SDS011;23740;51.550;6.846;2022-12-19T16:57:33;4.43;;;3.40;;
37907;SDS011;23740;51.550;6.846;2022-12-19T16:59:59;3.83;;;3.00;;
37907;SDS011;23740;51.550;6.846;2022-12-19T17:04:50;7.15;;;3.42;;
37907;SDS011;23740;51.550;6.846;2022-12-19T17:07:15;4.65;;;3.03;;
37907;SDS011;23740;51.550;6.846;2022-12-19T17:09:40;3.58;;;3.10;;
37907;SDS011;23740;51.550;6.846;2022-12-19T17:12:08;3.60;;;3.10;;
37907;SDS011;23740;51.550;6.846;2022-12-19T17:14:41;3.92;;;3.30;;
37907;SDS011;23740;51.550;6.846;2022-12-19T17:17:08;5.57;;;3.28;;
37907;SDS011;23740;51.550;6.846;2022-12-19T17:19:37;5.25;;;3.38;;
37907;SDS011;23740;51.550;6.846;2022-12-19T17:22:09;6.47;;;3.30;;
37907;SDS011;23740;51.550;6.846;2022-12-19T17:24:35;4.85;;;3.00;;
37907;SDS011;23740;51.550;6.846;2022-12-19T17:27:01;4.80;;;2.97;;
37907;SDS011;23740;51.550;6.846;2022-12-19T17:29:26;4.32;;;3.25;;
37907;SDS011;23740;51.550;6.846;2022-12-19T17:31:51;4.55;;;2.90;;
37907;SDS011;23740;51.550;6.846;2022-12-19T17:36:56;4.15;;;3.17;;
37907;SDS011;23740;51.550;6.846;2022-12-19T17:39:23;4.32;;;3.15;;
37907;SDS011;23740;51.550;6.846;2022-12-19T17:41:50;4.68;;;3.15;;
37907;SDS011;23740;51.550;6.846;2022-12-19T17:44:17;5.28;;;3.40;;
37907;SDS011;23740;51.550;6.846;2022-12-19T17:46:42;8.95;;;3.50;;
37907;SDS011;23740;51.550;6.846;2022-12-19T17:49:28;3.90;;;3.20;;
37907;SDS011;23740;51.550;6.846;2022-12-19T17:51:54;4.22;;;2.90;;
37907;SDS011;23740;51.550;6.846;2022-12-19T17:54:20;4.60;;;2.95;;
37907;SDS011;23740;51.550;6.846;2022-12-19T17:56:47;4.63;;;3.08;;
37907;SDS011;23740;51.550;6.846;2022-12-19T17:59:12;4.80;;;3.25;;
37907;SDS011;23740;51.550;6.846;2022-12-19T18:01:38;4.70;;;3.00;;